Time;durP1;ratioP1;P1;durP2;ratioP2;P2;SDS_P1;SDS_P2;PMS_P1;PMS_P2;Temp;Humidity;BMP_temperature;BMP_pressure;BME280_temperature;BME280_humidity;BME280_pressure;Samples;Min_cycle;Max_cycle;Signal;HPM_P1;HPM_P2
2024/01/01 00:02:27;;;;;;;385.13;278.10;;;5.80;76.00;;;;;;6300270;28;20236;-81
2024/01/01 00:05:31;;;;;;;369.00;264.93;;;5.80;76.00;;;;;;6300301;28;20237;-81
2024/01/01 00:08:34;;;;;;;372.43;265.83;;;5.80;76.20;;;;;;6294653;28;20236;-81
2024/01/01 00:11:38;;;;;;;383.53;279.13;;;5.80;76.00;;;;;;6294353;28;20236;-80
2024/01/01 00:14:44;;;;;;;355.00;251.03;;;5.70;76.20;;;;;;6299439;28;20244;-80
2024/01/01 00:17:47;;;;;;;298.87;207.93;;;5.80;76.20;;;;;;6303651;28;20248;-79
2024/01/01 00:20:50;;;;;;;293.60;206.83;;;5.80;76.10;;;;;;6292668;28;20239;-82
2024/01/01 00:23:53;;;;;;;219.90;149.70;;;5.70;76.20;;;;;;6309668;28;20294;-81
2024/01/01 00:26:58;;;;;;;238.50;162.43;;;5.70;76.20;;;;;;6296460;28;20229;-80
2024/01/01 00:30:01;;;;;;;208.00;139.90;;;5.60;76.20;;;;;;6304662;28;20273;-80
2024/01/01 00:33:04;;;;;;;174.63;125.70;;;5.60;76.40;;;;;;6299426;28;20240;-81
2024/01/01 00:36:08;;;;;;;165.13;115.90;;;5.60;76.50;;;;;;6290681;28;20233;-79
2024/01/01 00:39:11;;;;;;;158.07;110.90;;;5.70;76.30;;;;;;6302712;28;20236;-78
2024/01/01 00:42:16;;;;;;;135.60;94.20;;;5.70;76.30;;;;;;6293993;28;20406;-76
2024/01/01 00:45:19;;;;;;;115.13;83.93;;;5.70;76.40;;;;;;6293503;28;20241;-80
2024/01/01 00:48:22;;;;;;;112.47;78.83;;;5.60;76.50;;;;;;6291461;28;20865;-82
2024/01/01 00:51:26;;;;;;;115.33;80.53;;;5.60;76.60;;;;;;6301207;28;20315;-78
2024/01/01 00:54:29;;;;;;;100.47;68.13;;;5.60;76.40;;;;;;6301751;28;20244;-80
2024/01/01 00:57:34;;;;;;;88.87;61.70;;;5.60;76.50;;;;;;6304659;28;20244;-80
2024/01/01 01:00:37;;;;;;;77.37;53.57;;;5.60;76.60;;;;;;6298486;28;20240;-80
2024/01/01 01:03:41;;;;;;;74.60;53.83;;;5.60;76.60;;;;;;6310558;28;20229;-80
2024/01/01 01:06:45;;;;;;;63.03;45.43;;;5.50;76.60;;;;;;6305816;28;20233;-80
2024/01/01 01:09:48;;;;;;;57.30;42.20;;;5.60;76.50;;;;;;6298140;28;20233;-81
2024/01/01 01:12:54;;;;;;;53.23;36.60;;;5.60;76.20;;;;;;6298358;28;20804;-80
2024/01/01 01:15:57;;;;;;;45.93;34.67;;;5.70;76.20;;;;;;6291943;28;20318;-80
2024/01/01 01:19:00;;;;;;;55.20;38.43;;;5.70;76.00;;;;;;6305458;28;20245;-78
2024/01/01 01:22:04;;;;;;;55.03;39.83;;;5.70;76.00;;;;;;6308013;28;20770;-79
2024/01/01 01:25:08;;;;;;;47.30;36.13;;;5.70;76.00;;;;;;6312919;28;20247;-81
2024/01/01 01:28:14;;;;;;;46.07;35.20;;;5.70;75.90;;;;;;6295434;28;20233;-80
2024/01/01 01:31:18;;;;;;;45.80;31.93;;;5.70;75.90;;;;;;6302848;28;20733;-79
2024/01/01 01:34:21;;;;;;;59.37;42.47;;;5.70;76.00;;;;;;6288761;28;20238;-81
2024/01/01 01:37:24;;;;;;;59.30;38.83;;;5.70;76.00;;;;;;6299587;28;20279;-80
2024/01/01 01:40:27;;;;;;;61.33;40.37;;;5.70;76.00;;;;;;6296150;28;20722;-81
2024/01/01 01:43:32;;;;;;;52.93;39.33;;;5.70;75.80;;;;;;6292690;28;20320;-81
2024/01/01 01:46:36;;;;;;;55.93;38.47;;;5.70;75.80;;;;;;6293776;28;20233;-81
2024/01/01 01:49:40;;;;;;;51.63;37.67;;;5.60;76.00;;;;;;6305960;28;20237;-81
2024/01/01 01:52:44;;;;;;;52.80;37.83;;;5.60;76.20;;;;;;6297259;28;20559;-80
2024/01/01 01:55:47;;;;;;;52.60;36.87;;;5.60;76.10;;;;;;6305382;28;20235;-80
2024/01/01 01:58:52;;;;;;;52.50;37.57;;;5.50;76.30;;;;;;6304407;28;20224;-79
2024/01/01 02:01:57;;;;;;;51.47;36.67;;;5.50;76.50;;;;;;6304301;28;20240;-80
2024/01/01 02:05:00;;;;;;;48.70;35.03;;;5.50;76.70;;;;;;6310278;28;20233;-82
2024/01/01 02:08:04;;;;;;;51.17;38.07;;;5.50;76.50;;;;;;6301489;28;20235;-82
2024/01/01 02:11:07;;;;;;;49.93;34.10;;;5.50;76.40;;;;;;6303447;28;20285;-80
2024/01/01 02:14:13;;;;;;;39.93;30.90;;;5.40;76.60;;;;;;6313695;28;20873;-80
2024/01/01 02:17:17;;;;;;;38.50;27.90;;;5.40;76.50;;;;;;6302851;28;20319;-80
2024/01/01 02:20:20;;;;;;;36.43;26.70;;;5.50;76.30;;;;;;6297585;28;20247;-81
2024/01/01 02:23:25;;;;;;;36.57;26.57;;;5.50;76.10;;;;;;6294756;28;20244;-81
2024/01/01 02:26:29;;;;;;;31.67;22.73;;;5.50;76.10;;;;;;6307316;28;20251;-78
2024/01/01 02:29:32;;;;;;;31.13;22.80;;;5.50;76.20;;;;;;6294040;28;20720;-76
2024/01/01 02:32:35;;;;;;;32.80;22.10;;;5.40;76.20;;;;;;6297362;28;20245;-80
2024/01/01 02:35:38;;;;;;;25.87;21.03;;;5.40;76.20;;;;;;6297861;28;20310;-81
2024/01/01 02:38:42;;;;;;;29.17;21.50;;;5.40;76.30;;;;;;6299242;28;20771;-78
2024/01/01 02:41:45;;;;;;;29.50;20.37;;;5.50;75.90;;;;;;6295515;28;20742;-80
2024/01/01 02:44:48;;;;;;;23.77;19.30;;;5.40;75.90;;;;;;6300811;28;20226;-81
2024/01/01 02:47:53;;;;;;;28.00;20.87;;;5.30;76.20;;;;;;6295259;28;20609;-80
2024/01/01 02:50:56;;;;;;;27.83;19.27;;;5.30;76.10;;;;;;6294844;28;20233;-80
2024/01/01 02:54:01;;;;;;;26.07;18.60;;;5.40;76.10;;;;;;6294748;28;20817;-80
2024/01/01 02:57:04;;;;;;;27.03;19.57;;;5.30;76.10;;;;;;6293555;28;20236;-81
2024/01/01 03:00:09;;;;;;;24.90;18.23;;;5.30;76.20;;;;;;6295355;28;20752;-80
2024/01/01 03:03:13;;;;;;;32.60;20.43;;;5.20;76.30;;;;;;6304436;28;20225;-80
2024/01/01 03:06:21;;;;;;;24.40;19.03;;;5.30;76.00;;;;;;6301725;28;20289;-80
2024/01/01 03:09:25;;;;;;;26.53;18.37;;;5.30;76.20;;;;;;6299442;28;20891;-80
2024/01/01 03:12:28;;;;;;;26.40;20.47;;;5.10;76.20;;;;;;6309609;28;20853;-80
2024/01/01 03:15:31;;;;;;;26.33;19.90;;;5.10;76.30;;;;;;6294996;28;20272;-82
2024/01/01 03:18:34;;;;;;;23.03;19.23;;;5.10;76.30;;;;;;6312696;28;20758;-80
2024/01/01 03:21:39;;;;;;;24.53;17.47;;;5.00;76.50;;;;;;6298293;28;20229;-79
2024/01/01 03:24:43;;;;;;;20.67;16.77;;;5.10;76.50;;;;;;6294782;28;20591;-80
2024/01/01 03:27:47;;;;;;;21.07;16.53;;;5.10;76.50;;;;;;6294555;28;20241;-81
2024/01/01 03:30:50;;;;;;;21.87;16.13;;;5.20;76.10;;;;;;6294542;28;20224;-82
2024/01/01 03:33:53;;;;;;;20.43;16.20;;;5.20;76.00;;;;;;6306319;28;20302;-81
2024/01/01 03:36:59;;;;;;;21.20;15.87;;;5.10;76.20;;;;;;6299650;28;20755;-81
2024/01/01 03:40:06;;;;;;;20.23;15.97;;;5.10;76.30;;;;;;6292113;28;20323;-80
2024/01/01 03:43:09;;;;;;;21.90;15.97;;;5.10;76.30;;;;;;6294633;28;20721;-81
2024/01/01 03:46:12;;;;;;;23.70;16.00;;;5.10;76.40;;;;;;6288889;28;20758;-80
2024/01/01 03:49:16;;;;;;;20.33;16.27;;;5.10;76.50;;;;;;6297926;28;20749;-81
2024/01/01 03:52:19;;;;;;;23.10;16.73;;;5.30;76.10;;;;;;6300865;28;20706;-80
2024/01/01 03:55:23;;;;;;;22.07;16.23;;;5.20;76.10;;;;;;6294022;28;20327;-80
2024/01/01 03:58:27;;;;;;;25.13;17.93;;;5.30;75.90;;;;;;6302233;28;20263;-80
2024/01/01 04:01:31;;;;;;;26.73;17.87;;;5.30;75.70;;;;;;6309950;28;20752;-81
2024/01/01 04:04:35;;;;;;;25.30;18.27;;;5.30;75.60;;;;;;6311120;28;20266;-81
2024/01/01 04:07:39;;;;;;;25.90;17.07;;;5.10;75.80;;;;;;6295423;28;20798;-81
2024/01/01 04:10:43;;;;;;;22.40;17.23;;;5.10;75.90;;;;;;6293942;28;20312;-81
2024/01/01 04:13:46;;;;;;;24.00;17.50;;;5.10;76.00;;;;;;6301942;28;20231;-80
2024/01/01 04:16:49;;;;;;;24.73;17.50;;;5.00;76.00;;;;;;6306018;28;20232;-81
2024/01/01 04:19:53;;;;;;;24.90;17.70;;;5.00;76.20;;;;;;6294209;28;20260;-81
2024/01/01 04:22:57;;;;;;;29.13;20.20;;;5.00;76.20;;;;;;6302224;28;20323;-79
2024/01/01 04:26:02;;;;;;;20.87;16.27;;;4.90;76.20;;;;;;6302212;28;20229;-80
2024/01/01 04:29:05;;;;;;;25.00;19.37;;;4.90;76.40;;;;;;6297214;28;20225;-81
2024/01/01 04:32:09;;;;;;;27.27;19.30;;;5.00;76.20;;;;;;6306742;28;20236;-78
2024/01/01 04:35:12;;;;;;;24.77;18.87;;;5.00;76.30;;;;;;6300313;28;20235;-81
2024/01/01 04:38:15;;;;;;;26.67;18.83;;;4.90;76.70;;;;;;6302833;28;20269;-80
2024/01/01 04:41:20;;;;;;;20.70;17.17;;;4.90;76.70;;;;;;6304210;28;20785;-81
2024/01/01 04:44:23;;;;;;;22.97;18.43;;;4.90;76.70;;;;;;6304052;28;20233;-79
2024/01/01 04:47:26;;;;;;;25.47;18.33;;;5.00;76.50;;;;;;6312017;28;20244;-81
2024/01/01 04:50:29;;;;;;;22.07;18.20;;;5.00;76.50;;;;;;6307076;28;20229;-81
2024/01/01 04:53:32;;;;;;;24.17;17.07;;;5.00;76.40;;;;;;6300700;28;20588;-80
2024/01/01 04:56:37;;;;;;;26.20;17.77;;;5.00;76.50;;;;;;6302713;28;20245;-80
2024/01/01 04:59:43;;;;;;;25.73;18.47;;;5.10;76.20;;;;;;6300594;28;20239;-77
2024/01/01 05:02:46;;;;;;;28.07;17.77;;;5.10;76.10;;;;;;6306118;28;20760;-80
2024/01/01 05:05:49;;;;;;;26.70;18.43;;;5.10;75.80;;;;;;6306261;28;20336;-80
2024/01/01 05:08:53;;;;;;;25.30;17.83;;;5.10;75.70;;;;;;6299038;28;20232;-79
2024/01/01 05:11:57;;;;;;;22.20;16.63;;;5.10;75.70;;;;;;6297340;28;20232;-81
2024/01/01 05:15:00;;;;;;;21.20;18.03;;;5.20;75.40;;;;;;6310856;28;20244;-81
2024/01/01 05:18:04;;;;;;;26.87;17.07;;;5.20;75.40;;;;;;6307477;28;20229;-80
2024/01/01 05:21:07;;;;;;;23.17;16.63;;;5.20;75.50;;;;;;6314074;28;20224;-80
2024/01/01 05:24:10;;;;;;;26.23;16.83;;;5.30;75.40;;;;;;6309471;28;20237;-80
2024/01/01 05:27:15;;;;;;;21.00;15.47;;;5.30;75.40;;;;;;6313650;28;20617;-80
2024/01/01 05:30:18;;;;;;;19.60;15.90;;;5.30;75.20;;;;;;6299396;28;20302;-81
2024/01/01 05:33:21;;;;;;;21.83;17.27;;;5.30;75.20;;;;;;6306753;28;20802;-81
2024/01/01 05:36:25;;;;;;;17.83;14.97;;;5.30;75.20;;;;;;6297226;28;20381;-79
2024/01/01 05:39:28;;;;;;;20.23;16.53;;;5.30;75.40;;;;;;6305242;28;20233;-79
2024/01/01 05:42:32;;;;;;;21.63;16.47;;;5.30;75.40;;;;;;6302872;28;20241;-81
2024/01/01 05:45:35;;;;;;;22.20;16.30;;;5.30;74.90;;;;;;6298719;28;20714;-81
2024/01/01 05:48:38;;;;;;;19.50;15.93;;;5.30;74.90;;;;;;6306712;28;20708;-79
2024/01/01 05:51:44;;;;;;;19.50;14.93;;;5.30;75.20;;;;;;6299232;28;20233;-80
2024/01/01 05:54:47;;;;;;;20.70;15.43;;;5.30;75.40;;;;;;6308388;28;20256;-80
2024/01/01 05:57:51;;;;;;;20.73;14.93;;;5.30;75.40;;;;;;6306944;28;20627;-80
2024/01/01 06:00:54;;;;;;;18.97;14.80;;;5.30;75.00;;;;;;6300454;28;20251;-80
2024/01/01 06:03:57;;;;;;;19.50;14.73;;;5.40;74.90;;;;;;6307597;28;20237;-80
2024/01/01 06:07:00;;;;;;;21.07;14.50;;;5.40;74.90;;;;;;6307494;28;20238;-80
2024/01/01 06:10:04;;;;;;;16.60;14.20;;;5.60;74.60;;;;;;6309631;28;20747;-79
2024/01/01 06:13:08;;;;;;;20.00;14.27;;;5.60;74.80;;;;;;6303234;28;20246;-80
2024/01/01 06:16:13;;;;;;;17.50;13.83;;;5.60;75.30;;;;;;6300205;28;20294;-78
2024/01/01 06:19:16;;;;;;;21.90;14.60;;;5.60;75.80;;;;;;6310677;28;20226;-80
2024/01/01 06:22:19;;;;;;;18.07;13.67;;;5.50;76.60;;;;;;6309155;28;20232;-79
2024/01/01 06:25:22;;;;;;;16.03;12.77;;;5.50;76.70;;;;;;6305878;28;20252;-80
2024/01/01 06:28:27;;;;;;;16.07;13.80;;;5.50;76.80;;;;;;6297751;28;20237;-81
2024/01/01 06:31:30;;;;;;;15.47;13.77;;;5.50;76.70;;;;;;6306826;28;20251;-79
2024/01/01 06:34:33;;;;;;;17.30;13.73;;;5.50;76.80;;;;;;6299656;28;20233;-80
2024/01/01 06:37:37;;;;;;;18.13;14.40;;;5.40;76.90;;;;;;6296039;28;20306;-76
2024/01/01 06:40:40;;;;;;;16.50;12.73;;;5.30;77.10;;;;;;6299355;28;20236;-77
2024/01/01 06:43:44;;;;;;;17.10;13.37;;;5.30;77.10;;;;;;6294098;28;20729;-76
2024/01/01 06:46:47;;;;;;;19.83;13.20;;;5.30;77.30;;;;;;6311495;28;20244;-76
2024/01/01 06:49:51;;;;;;;17.93;14.53;;;5.30;77.20;;;;;;6311815;28;20720;-76
2024/01/01 06:52:54;;;;;;;19.57;14.90;;;5.30;77.20;;;;;;6296828;28;20771;-78
2024/01/01 06:55:57;;;;;;;16.33;13.73;;;5.30;77.50;;;;;;6301660;28;20244;-78
2024/01/01 06:59:01;;;;;;;17.63;13.33;;;5.30;77.00;;;;;;6304284;28;20259;-76
2024/01/01 07:02:05;;;;;;;20.60;15.13;;;5.30;77.20;;;;;;6303101;28;20239;-79
2024/01/01 07:05:09;;;;;;;22.47;17.00;;;5.30;77.10;;;;;;6306654;28;20244;-80
2024/01/01 07:08:12;;;;;;;23.93;18.90;;;5.30;77.10;;;;;;6297516;28;20374;-76
2024/01/01 07:11:15;;;;;;;24.27;16.80;;;5.30;77.10;;;;;;6295392;28;20220;-76
2024/01/01 07:14:20;;;;;;;21.80;15.37;;;5.20;77.10;;;;;;6309485;28;20285;-76
2024/01/01 07:17:23;;;;;;;18.80;14.03;;;5.10;77.30;;;;;;6309190;28;20247;-77
2024/01/01 07:20:27;;;;;;;15.80;12.70;;;5.10;77.40;;;;;;6302661;28;20255;-77
2024/01/01 07:23:30;;;;;;;14.93;12.60;;;5.10;77.40;;;;;;6303610;28;20838;-77
2024/01/01 07:26:33;;;;;;;16.77;12.63;;;5.10;77.50;;;;;;6300239;28;20240;-77
2024/01/01 07:29:38;;;;;;;13.67;12.10;;;5.10;77.50;;;;;;6305315;28;20280;-76
2024/01/01 07:32:41;;;;;;;16.20;12.33;;;5.10;77.50;;;;;;6300085;28;20771;-76
2024/01/01 07:35:44;;;;;;;17.60;11.87;;;5.10;77.30;;;;;;6305921;28;20327;-78
2024/01/01 07:38:47;;;;;;;13.43;11.77;;;5.10;77.10;;;;;;6306410;28;20879;-76
2024/01/01 07:41:51;;;;;;;15.03;11.53;;;5.10;77.10;;;;;;6288865;28;20309;-76
2024/01/01 07:44:56;;;;;;;11.80;10.60;;;5.10;77.10;;;;;;6301830;28;20274;-77
2024/01/01 07:47:59;;;;;;;16.37;12.33;;;5.10;77.20;;;;;;6299031;28;20237;-77
2024/01/01 07:51:02;;;;;;;16.10;12.07;;;5.10;77.10;;;;;;6305035;28;20229;-75
2024/01/01 07:54:05;;;;;;;13.27;11.63;;;5.20;77.20;;;;;;6300122;28;20875;-77
2024/01/01 07:57:09;;;;;;;15.27;12.00;;;5.30;77.00;;;;;;6307213;28;20861;-75
2024/01/01 08:00:15;;;;;;;14.93;10.87;;;5.30;76.90;;;;;;6309236;28;20370;-77
2024/01/01 08:03:20;;;;;;;13.27;10.93;;;5.30;76.80;;;;;;6305284;28;21503;-77
2024/01/01 08:06:24;;;;;;;12.83;11.17;;;5.30;76.80;;;;;;6307832;28;20233;-76
2024/01/01 08:09:27;;;;;;;14.90;11.60;;;5.40;76.50;;;;;;6309154;28;20267;-76
2024/01/01 08:12:30;;;;;;;11.50;10.17;;;5.50;76.60;;;;;;6283565;28;20244;-77
2024/01/01 08:15:34;;;;;;;15.20;11.43;;;5.50;76.30;;;;;;6304571;28;20232;-76
2024/01/01 08:18:38;;;;;;;10.93;9.83;;;5.60;76.10;;;;;;6307836;28;20240;-77
2024/01/01 08:21:41;;;;;;;11.33;9.90;;;5.60;75.70;;;;;;6301662;28;20256;-76
2024/01/01 08:24:44;;;;;;;10.53;9.47;;;5.70;75.80;;;;;;6303904;28;20244;-76
2024/01/01 08:27:48;;;;;;;10.27;9.30;;;5.90;75.60;;;;;;6296469;28;20262;-78
2024/01/01 08:30:52;;;;;;;10.77;9.07;;;5.90;75.10;;;;;;6303080;28;20274;-76
2024/01/01 08:33:55;;;;;;;13.23;9.83;;;6.00;75.00;;;;;;6302735;28;20233;-78
2024/01/01 08:37:00;;;;;;;11.30;8.63;;;6.10;74.40;;;;;;6300165;28;20317;-77
2024/01/01 08:40:04;;;;;;;11.60;9.03;;;6.20;74.40;;;;;;6296929;28;20239;-77
2024/01/01 08:43:07;;;;;;;8.63;7.83;;;6.30;74.00;;;;;;6299686;28;20232;-78
2024/01/01 08:46:11;;;;;;;11.77;8.63;;;6.30;73.50;;;;;;6297335;28;20755;-77
2024/01/01 08:49:15;;;;;;;9.30;7.60;;;6.30;73.90;;;;;;6295469;28;20740;-77
2024/01/01 08:52:18;;;;;;;8.77;7.70;;;6.40;73.80;;;;;;6287477;28;20613;-76
2024/01/01 08:55:21;;;;;;;8.37;7.57;;;6.50;73.30;;;;;;6303692;28;20236;-75
2024/01/01 08:58:24;;;;;;;8.23;7.47;;;6.60;72.90;;;;;;6300328;28;20785;-76
2024/01/01 09:01:28;;;;;;;7.90;6.67;;;6.70;72.70;;;;;;6277387;28;20795;-76
2024/01/01 09:04:32;;;;;;;6.80;6.07;;;6.80;72.70;;;;;;6302378;28;20237;-75
2024/01/01 09:07:36;;;;;;;6.80;6.20;;;7.00;72.20;;;;;;6303387;28;20355;-76
2024/01/01 09:10:39;;;;;;;7.07;6.47;;;7.10;72.00;;;;;;6301194;28;20243;-76
2024/01/01 09:13:42;;;;;;;8.93;6.67;;;7.20;71.70;;;;;;6309854;28;20539;-76
2024/01/01 09:16:47;;;;;;;7.80;7.00;;;7.20;71.50;;;;;;6297094;28;20248;-76
2024/01/01 09:19:52;;;;;;;6.87;6.37;;;7.20;71.30;;;;;;6305874;28;20252;-78
2024/01/01 09:22:56;;;;;;;7.33;6.73;;;7.40;70.50;;;;;;6312889;28;20229;-77
2024/01/01 09:25:59;;;;;;;7.17;6.53;;;7.20;70.80;;;;;;6300837;28;20241;-76
2024/01/01 09:29:04;;;;;;;7.13;6.50;;;7.20;70.70;;;;;;6299631;28;20232;-77
2024/01/01 09:32:08;;;;;;;6.63;6.17;;;7.20;71.00;;;;;;6297785;28;20648;-76
2024/01/01 09:35:12;;;;;;;6.70;6.20;;;7.30;70.60;;;;;;6299620;28;20229;-76
2024/01/01 09:38:15;;;;;;;6.63;6.13;;;7.40;70.50;;;;;;6304107;28;20229;-78
2024/01/01 09:41:24;;;;;;;7.13;6.53;;;7.20;70.50;;;;;;6311259;28;20626;-78
2024/01/01 09:44:27;;;;;;;7.67;6.83;;;7.20;70.60;;;;;;6304275;28;20318;-77
2024/01/01 09:47:32;;;;;;;8.53;6.30;;;7.20;71.00;;;;;;6309524;28;20243;-76
2024/01/01 09:50:35;;;;;;;7.97;6.27;;;7.30;69.80;;;;;;6308676;28;20254;-76
2024/01/01 09:53:38;;;;;;;7.40;6.33;;;7.40;69.70;;;;;;6302888;28;20713;-77
2024/01/01 09:56:42;;;;;;;7.00;6.23;;;7.20;70.10;;;;;;6306846;28;20280;-77
2024/01/01 09:59:46;;;;;;;6.97;6.53;;;7.20;70.20;;;;;;6306001;28;20255;-78
2024/01/01 10:02:50;;;;;;;6.13;5.83;;;7.20;70.70;;;;;;6304928;28;20240;-77
2024/01/01 10:05:54;;;;;;;8.03;6.70;;;7.20;70.70;;;;;;6306688;28;20244;-76
2024/01/01 10:09:06;;;;;;;8.90;6.27;;;7.20;70.60;;;;;;6289536;28;20579;-75
2024/01/01 10:12:10;;;;;;;8.47;6.27;;;7.20;70.70;;;;;;6297661;28;20225;-76
2024/01/01 10:15:14;;;;;;;12.40;7.03;;;7.20;71.40;;;;;;6299277;28;20626;-75
2024/01/01 10:18:18;;;;;;;8.03;7.33;;;7.20;71.80;;;;;;6302331;28;20240;-76
2024/01/01 10:21:28;;;;;;;7.63;6.93;;;7.20;71.70;;;;;;6294257;28;20384;-76
2024/01/01 10:24:31;;;;;;;8.70;6.57;;;7.20;71.20;;;;;;6299219;28;20313;-78
2024/01/01 10:27:37;;;;;;;7.43;6.73;;;7.20;71.10;;;;;;6309789;28;20619;-76
2024/01/01 10:30:42;;;;;;;9.83;7.73;;;7.20;71.50;;;;;;6311690;28;20244;-77
2024/01/01 10:33:50;;;;;;;8.07;6.63;;;7.20;71.20;;;;;;6301476;28;20228;-77
2024/01/01 10:36:54;;;;;;;8.03;7.30;;;7.20;70.90;;;;;;6301840;28;20239;-76
2024/01/01 10:40:05;;;;;;;10.40;7.37;;;7.10;71.20;;;;;;6306436;28;20266;-77
2024/01/01 10:43:09;;;;;;;8.50;7.33;;;7.10;71.50;;;;;;6301080;28;20225;-75
2024/01/01 10:46:13;;;;;;;7.80;7.03;;;7.10;71.20;;;;;;6306814;28;20813;-75
2024/01/01 10:49:24;;;;;;;7.13;6.43;;;7.20;71.00;;;;;;6302354;28;20247;-76
2024/01/01 10:52:41;;;;;;;7.10;6.50;;;7.20;71.00;;;;;;6307644;28;20888;-76
2024/01/01 10:55:57;;;;;;;7.70;6.90;;;7.20;71.10;;;;;;6300662;28;20738;-77
2024/01/01 10:59:11;;;;;;;8.73;7.17;;;7.20;71.10;;;;;;6307570;28;20232;-77
2024/01/01 11:02:15;;;;;;;6.97;6.30;;;7.20;70.70;;;;;;6302691;28;20814;-76
2024/01/01 11:05:19;;;;;;;6.57;6.03;;;7.20;70.70;;;;;;6305900;28;20241;-77
2024/01/01 11:08:27;;;;;;;7.17;6.57;;;7.20;70.50;;;;;;6301629;28;20240;-75
2024/01/01 11:11:31;;;;;;;8.07;7.23;;;7.20;70.10;;;;;;6293528;28;20703;-78
2024/01/01 11:14:38;;;;;;;7.60;6.33;;;7.20;70.30;;;;;;6301662;28;20240;-76
2024/01/01 11:17:41;;;;;;;6.97;6.33;;;7.20;70.50;;;;;;6300264;28;20316;-76
2024/01/01 11:20:53;;;;;;;7.77;5.97;;;7.40;70.30;;;;;;6311540;28;20743;-77
2024/01/01 11:23:59;;;;;;;7.77;6.77;;;7.40;70.10;;;;;;6290474;28;20326;-77
2024/01/01 11:27:26;;;;;;;8.50;6.30;;;7.40;70.00;;;;;;6296715;28;20279;-76
2024/01/01 11:30:29;;;;;;;6.87;6.27;;;7.40;70.40;;;;;;6301996;28;20249;-78
2024/01/01 11:33:32;;;;;;;8.23;6.43;;;7.40;70.00;;;;;;6313089;28;20243;-77
2024/01/01 11:36:40;;;;;;;6.97;6.37;;;7.40;70.50;;;;;;6303370;28;20233;-76
2024/01/01 11:39:43;;;;;;;7.83;6.30;;;7.40;70.20;;;;;;6295342;28;20236;-77
2024/01/01 11:42:48;;;;;;;9.00;6.83;;;7.40;70.70;;;;;;6302556;28;20875;-76
2024/01/01 11:45:55;;;;;;;7.30;6.10;;;7.50;70.80;;;;;;6279723;28;20237;-78
2024/01/01 11:49:05;;;;;;;6.47;6.00;;;7.50;70.80;;;;;;6306482;28;20281;-76
2024/01/01 11:52:11;;;;;;;7.20;6.50;;;7.50;70.50;;;;;;6307329;28;20374;-78
2024/01/01 11:55:14;;;;;;;7.10;6.33;;;7.50;70.50;;;;;;6293631;28;20237;-77
2024/01/01 11:58:18;;;;;;;7.47;6.20;;;7.40;70.80;;;;;;6306344;28;20315;-77
2024/01/01 12:01:21;;;;;;;7.10;6.40;;;7.50;70.90;;;;;;6300268;28;20236;-78
2024/01/01 12:04:25;;;;;;;10.47;6.40;;;7.50;71.00;;;;;;6295909;28;20248;-76
2024/01/01 12:07:31;;;;;;;7.03;6.37;;;7.60;70.50;;;;;;6289083;28;20237;-77
2024/01/01 12:10:34;;;;;;;8.37;6.73;;;7.60;70.40;;;;;;6305748;28;20249;-78
2024/01/01 12:13:37;;;;;;;6.07;5.47;;;7.60;70.40;;;;;;6295451;28;20713;-78
2024/01/01 12:16:42;;;;;;;9.33;5.63;;;7.60;70.70;;;;;;6297718;28;20233;-76
2024/01/01 12:19:46;;;;;;;6.87;6.17;;;7.50;70.50;;;;;;6301503;28;20241;-78
2024/01/01 12:22:50;;;;;;;7.50;5.47;;;7.60;70.20;;;;;;6301265;28;20220;-77
2024/01/01 12:26:03;;;;;;;6.10;5.50;;;7.70;70.10;;;;;;6304168;28;20302;-76
2024/01/01 12:29:11;;;;;;;9.17;5.77;;;7.80;69.50;;;;;;6302261;28;20232;-75
2024/01/01 12:32:14;;;;;;;7.70;5.90;;;7.80;69.70;;;;;;6305446;28;20235;-77
2024/01/01 12:35:18;;;;;;;6.33;5.60;;;7.80;70.00;;;;;;6300060;28;20236;-77
2024/01/01 12:38:22;;;;;;;7.67;5.43;;;8.00;69.20;;;;;;6298051;28;20853;-77
2024/01/01 12:41:25;;;;;;;8.07;5.53;;;8.00;69.50;;;;;;6293495;28;20762;-76
2024/01/01 12:44:28;;;;;;;6.37;5.77;;;8.00;68.90;;;;;;6309392;28;20240;-76
2024/01/01 12:47:32;;;;;;;10.47;5.70;;;8.10;68.90;;;;;;6299154;28;20237;-76
2024/01/01 12:50:35;;;;;;;4.90;4.70;;;8.10;69.00;;;;;;6286232;28;20237;-76
2024/01/01 12:53:39;;;;;;;6.37;5.87;;;8.10;69.00;;;;;;6303304;28;20643;-76
2024/01/01 12:56:42;;;;;;;5.97;5.43;;;8.10;69.50;;;;;;6306978;28;20320;-77
2024/01/01 12:59:46;;;;;;;10.33;5.70;;;8.00;70.00;;;;;;6307283;28;20762;-76
2024/01/01 13:02:49;;;;;;;7.30;5.20;;;8.00;70.80;;;;;;6308642;28;20314;-75
2024/01/01 13:05:52;;;;;;;10.23;5.33;;;8.00;71.20;;;;;;6299140;28;20704;-75
2024/01/01 13:08:56;;;;;;;8.07;5.90;;;8.00;71.00;;;;;;6311316;28;20647;-76
2024/01/01 13:12:00;;;;;;;7.30;5.40;;;7.90;70.90;;;;;;6313624;28;20244;-77
2024/01/01 13:15:04;;;;;;;6.07;5.10;;;8.00;71.20;;;;;;6303120;28;20267;-79
2024/01/01 13:18:07;;;;;;;6.33;5.73;;;7.90;71.00;;;;;;6306620;28;20838;-77
2024/01/01 13:21:11;;;;;;;7.03;5.70;;;7.90;71.20;;;;;;6311236;28;20236;-77
2024/01/01 13:24:18;;;;;;;8.47;6.07;;;7.80;71.40;;;;;;6297103;28;20320;-77
2024/01/01 13:27:21;;;;;;;10.33;5.30;;;7.80;71.20;;;;;;6305083;28;20256;-77
2024/01/01 13:30:24;;;;;;;6.80;5.60;;;7.80;71.50;;;;;;6292985;28;20336;-76
2024/01/01 13:33:28;;;;;;;8.20;5.73;;;7.80;71.40;;;;;;6303171;28;20233;-76
2024/01/01 13:36:32;;;;;;;5.40;5.00;;;7.60;72.10;;;;;;6298534;28;20790;-76
2024/01/01 13:39:37;;;;;;;6.63;5.60;;;7.60;72.30;;;;;;6298398;28;20240;-77
2024/01/01 13:42:40;;;;;;;7.20;5.73;;;7.60;72.00;;;;;;6304826;28;20263;-77
2024/01/01 13:45:43;;;;;;;7.33;5.80;;;7.60;71.90;;;;;;6309106;28;20290;-76
2024/01/01 13:48:47;;;;;;;10.90;5.30;;;7.50;72.10;;;;;;6313921;28;20228;-76
2024/01/01 13:51:51;;;;;;;6.63;5.37;;;7.60;72.20;;;;;;6303521;28;20331;-75
2024/01/01 13:54:56;;;;;;;11.03;5.23;;;7.60;71.70;;;;;;6303510;28;20236;-76
2024/01/01 13:58:02;;;;;;;8.37;5.67;;;7.60;71.70;;;;;;6305943;28;20749;-76
2024/01/01 14:01:05;;;;;;;7.90;5.40;;;7.70;71.40;;;;;;6311198;28;20251;-77
2024/01/01 14:04:09;;;;;;;7.60;5.70;;;7.70;71.60;;;;;;6302514;28;20627;-77
2024/01/01 14:07:13;;;;;;;8.57;5.60;;;7.60;71.20;;;;;;6308697;28;20237;-76
2024/01/01 14:10:19;;;;;;;7.17;5.47;;;7.60;71.50;;;;;;6310094;28;20252;-76
2024/01/01 14:13:23;;;;;;;7.10;5.60;;;7.60;71.30;;;;;;6308770;28;20229;-76
2024/01/01 14:16:26;;;;;;;8.17;5.50;;;7.70;71.00;;;;;;6311866;28;20233;-75
2024/01/01 14:19:29;;;;;;;7.73;6.00;;;7.60;71.10;;;;;;6305007;28;20716;-76
2024/01/01 14:22:33;;;;;;;11.77;6.27;;;7.60;71.10;;;;;;6302181;28;20316;-77
2024/01/01 14:25:38;;;;;;;10.13;6.83;;;7.60;71.00;;;;;;6304753;28;20248;-77
2024/01/01 14:28:41;;;;;;;9.97;6.30;;;7.50;71.20;;;;;;6302180;28;20229;-76
2024/01/01 14:31:45;;;;;;;10.67;6.03;;;7.60;71.10;;;;;;6299432;28;20240;-75
2024/01/01 14:34:48;;;;;;;11.60;5.60;;;7.60;71.20;;;;;;6298258;28;20330;-77
2024/01/01 14:37:52;;;;;;;8.00;5.60;;;7.60;71.00;;;;;;6302765;28;20260;-76
2024/01/01 14:40:56;;;;;;;5.77;5.27;;;7.60;70.80;;;;;;6309253;28;20241;-77
2024/01/01 14:43:59;;;;;;;10.57;5.37;;;7.60;70.70;;;;;;6302420;28;20303;-76
2024/01/01 14:47:03;;;;;;;8.57;5.90;;;7.60;70.70;;;;;;6300381;28;20236;-76
2024/01/01 14:50:09;;;;;;;11.97;6.17;;;7.60;70.50;;;;;;6299636;28;20225;-75
2024/01/01 14:53:12;;;;;;;9.33;6.00;;;7.60;70.90;;;;;;6304008;28;22118;-76
2024/01/01 14:56:16;;;;;;;9.13;5.80;;;7.60;70.60;;;;;;6299665;28;20614;-79
2024/01/01 14:59:23;;;;;;;8.57;5.80;;;7.60;70.80;;;;;;6308157;28;20793;-76
2024/01/01 15:02:26;;;;;;;9.00;5.30;;;7.60;70.60;;;;;;6303362;28;20240;-77
2024/01/01 15:05:29;;;;;;;7.73;5.83;;;7.60;70.70;;;;;;6303217;28;20236;-77
2024/01/01 15:08:34;;;;;;;5.13;4.80;;;7.60;70.50;;;;;;6302732;28;20228;-78
2024/01/01 15:11:40;;;;;;;5.77;4.60;;;7.60;70.50;;;;;;6297702;28;20295;-76
2024/01/01 15:14:43;;;;;;;4.83;4.50;;;7.60;70.40;;;;;;6311461;28;20282;-75
2024/01/01 15:17:49;;;;;;;5.23;4.60;;;7.60;70.30;;;;;;6305829;28;20241;-77
2024/01/01 15:20:52;;;;;;;8.23;5.17;;;7.70;69.90;;;;;;6289953;28;20236;-76
2024/01/01 15:23:56;;;;;;;9.33;4.83;;;7.70;69.80;;;;;;6293289;28;20304;-74
2024/01/01 15:27:02;;;;;;;5.33;4.70;;;7.80;69.70;;;;;;6311358;28;20263;-76
2024/01/01 15:30:07;;;;;;;10.40;5.10;;;7.80;69.40;;;;;;6298127;28;20247;-76
2024/01/01 15:33:10;;;;;;;7.97;4.70;;;7.80;69.30;;;;;;6305785;28;20233;-76
2024/01/01 15:36:16;;;;;;;7.67;4.60;;;7.80;69.70;;;;;;6303759;28;20245;-78
2024/01/01 15:39:19;;;;;;;7.27;4.60;;;7.80;69.30;;;;;;6299933;28;20241;-76
2024/01/01 15:42:23;;;;;;;8.43;4.30;;;7.80;69.60;;;;;;6293462;28;20611;-76
2024/01/01 15:45:27;;;;;;;9.43;4.70;;;7.80;70.10;;;;;;6295258;28;20240;-76
2024/01/01 15:48:30;;;;;;;8.17;4.67;;;7.80;70.30;;;;;;6309307;28;20232;-75
2024/01/01 15:51:34;;;;;;;7.57;4.77;;;7.60;70.70;;;;;;6291409;28;20937;-74
2024/01/01 15:54:42;;;;;;;6.53;4.43;;;7.60;70.50;;;;;;6300758;28;20233;-75
2024/01/01 15:57:48;;;;;;;5.13;4.63;;;7.60;70.60;;;;;;6313472;28;20229;-77